sensor_id;sensor_type;location;lat;lon;timestamp;P1;P2;P0
50041;PMS7003;44598;51.606;5.912;2023-04-15T00:11:34;10.21;11.45;7.75
50041;PMS7003;44598;51.606;5.912;2023-04-15T00:24:53;10.57;11.35;7.64
50041;PMS7003;44598;51.606;5.912;2023-04-15T00:38:13;13.09;13.31;8.29
50041;PMS7003;44598;51.606;5.912;2023-04-15T01:44:51;12.73;12.87;7.53
50041;PMS7003;44598;51.606;5.912;2023-04-15T01:58:11;13.57;13.96;8.18
50041;PMS7003;44598;51.606;5.912;2023-04-15T02:11:30;17.05;17.23;9.6
50041;PMS7003;44598;51.606;5.912;2023-04-15T02:24:50;15.13;16.9;9.38
50041;PMS7003;44598;51.606;5.912;2023-04-15T02:51:29;15.85;17.01;9.38
50041;PMS7003;44598;51.606;5.912;2023-04-15T03:31:28;18.01;18.65;10.69
50041;PMS7003;44598;51.606;5.912;2023-04-15T03:44:48;18.61;19.3;10.26
50041;PMS7003;44598;51.606;5.912;2023-04-15T03:58:07;18.97;18.98;10.69
50041;PMS7003;44598;51.606;5.912;2023-04-15T04:11:27;17.29;18.54;10.36
50041;PMS7003;44598;51.606;5.912;2023-04-15T05:18:05;22.09;19.96;10.36
50041;PMS7003;44598;51.606;5.912;2023-04-15T05:31:24;19.09;18.87;10.58
50041;PMS7003;44598;51.606;5.912;2023-04-15T05:58:04;18.13;18.98;10.36
50041;PMS7003;44598;51.606;5.912;2023-04-15T06:24:43;17.89;19.08;11.24
50041;PMS7003;44598;51.606;5.912;2023-04-15T07:04:42;17.41;18.1;10.91
50041;PMS7003;44598;51.606;5.912;2023-04-15T07:18:02;14.89;16.47;9.6
50041;PMS7003;44598;51.606;5.912;2023-04-15T07:44:41;16.09;17.56;10.58
50041;PMS7003;44598;51.606;5.912;2023-04-15T08:51:19;8.89;11.24;6.99
50041;PMS7003;44598;51.606;5.912;2023-04-15T09:04:39;4.21;6.88;4.26
50041;PMS7003;44598;51.606;5.912;2023-04-15T09:17:58;3.73;6.55;4.37
50041;PMS7003;44598;51.606;5.912;2023-04-15T09:31:18;4.93;7.64;4.7
50041;PMS7003;44598;51.606;5.912;2023-04-15T09:57:57;5.05;7.75;4.26
50041;PMS7003;44598;51.606;5.912;2023-04-15T10:11:17;6.85;7.86;4.7
50041;PMS7003;44598;51.606;5.912;2023-04-15T10:24:36;2.52;5.57;3.71
50041;PMS7003;44598;51.606;5.912;2023-04-15T10:37:56;3.6;6.11;3.71
50041;PMS7003;44598;51.606;5.912;2023-04-15T10:51:16;3.24;5.57;3.71
50041;PMS7003;44598;51.606;5.912;2023-04-15T11:17:55;1.92;4.91;3.28
50041;PMS7003;44598;51.606;5.912;2023-04-15T11:31:15;2.16;5.13;3.61
50041;PMS7003;44598;51.606;5.912;2023-04-15T11:44:34;1.08;4.26;2.84
50041;PMS7003;44598;51.606;5.912;2023-04-15T11:57:54;0.48;3.71;2.52
50041;PMS7003;44598;51.606;5.912;2023-04-15T12:11:13;0.12;3.28;2.19
50041;PMS7003;44598;51.606;5.912;2023-04-15T12:24:33;0.12;3.39;2.3
50041;PMS7003;44598;51.606;5.912;2023-04-15T12:37:53;0.36;3.61;2.52
50041;PMS7003;44598;51.606;5.912;2023-04-15T12:51:12;0.24;3.39;2.3
50041;PMS7003;44598;51.606;5.912;2023-04-15T13:04:32;0.01;2.19;1.64
50041;PMS7003;44598;51.606;5.912;2023-04-15T13:17:52;0.01;1.54;1.21
50041;PMS7003;44598;51.606;5.912;2023-04-15T13:44:31;0.01;1.86;1.43
50041;PMS7003;44598;51.606;5.912;2023-04-15T13:57:50;0.01;2.41;1.75
50041;PMS7003;44598;51.606;5.912;2023-04-15T14:11:10;0.01;2.73;1.97
50041;PMS7003;44598;51.606;5.912;2023-04-15T14:24:30;0.01;1.97;1.32
50041;PMS7003;44598;51.606;5.912;2023-04-15T14:37:49;0.01;1.54;1.21
50041;PMS7003;44598;51.606;5.912;2023-04-15T14:51:09;0.01;1.86;1.32
50041;PMS7003;44598;51.606;5.912;2023-04-15T15:04:29;0.01;1.21;1.21
50041;PMS7003;44598;51.606;5.912;2023-04-15T15:17:48;0.01;1.32;1.21
50041;PMS7003;44598;51.606;5.912;2023-04-15T15:31:08;0.01;2.08;1.32
50041;PMS7003;44598;51.606;5.912;2023-04-15T15:44:27;0.01;1.64;1.32
50041;PMS7003;44598;51.606;5.912;2023-04-15T15:57:47;0.01;1.75;1.43
50041;PMS7003;44598;51.606;5.912;2023-04-15T16:11:07;9.13;11.35;7.09
50041;PMS7003;44598;51.606;5.912;2023-04-15T16:24:26;0.01;2.73;1.75
50041;PMS7003;44598;51.606;5.912;2023-04-15T16:37:46;0.24;3.17;2.52
50041;PMS7003;44598;51.606;5.912;2023-04-15T16:51:06;1.44;2.84;1.97
50041;PMS7003;44598;51.606;5.912;2023-04-15T17:04:25;0.48;3.17;2.3
50041;PMS7003;44598;51.606;5.912;2023-04-15T17:17:45;2.28;4.8;2.84
50041;PMS7003;44598;51.606;5.912;2023-04-15T17:31:05;0.0;3.17;2.08
50041;PMS7003;44598;51.606;5.912;2023-04-15T17:44:24;0.72;3.17;1.97
50041;PMS7003;44598;51.606;5.912;2023-04-15T17:57:44;0.12;3.17;1.86
50041;PMS7003;44598;51.606;5.912;2023-04-15T18:11:03;0.01;2.41;1.64
50041;PMS7003;44598;51.606;5.912;2023-04-15T18:24:23;0.84;3.61;2.41
50041;PMS7003;44598;51.606;5.912;2023-04-15T18:37:43;0.72;2.95;1.64
50041;PMS7003;44598;51.606;5.912;2023-04-15T18:51:02;10.09;11.45;5.9
50041;PMS7003;44598;51.606;5.912;2023-04-15T19:04:22;0.48;3.5;2.52
50041;PMS7003;44598;51.606;5.912;2023-04-15T19:17:41;3.12;3.71;2.3
50041;PMS7003;44598;51.606;5.912;2023-04-15T19:31:01;1.68;3.06;2.08
50041;PMS7003;44598;51.606;5.912;2023-04-15T19:44:21;0.84;3.39;2.52
50041;PMS7003;44598;51.606;5.912;2023-04-15T19:57:40;2.88;3.5;2.41
50041;PMS7003;44598;51.606;5.912;2023-04-15T20:11:00;1.08;3.5;2.62
50041;PMS7003;44598;51.606;5.912;2023-04-15T20:24:19;1.32;3.71;2.73
50041;PMS7003;44598;51.606;5.912;2023-04-15T20:37:39;0.72;3.61;2.62
50041;PMS7003;44598;51.606;5.912;2023-04-15T20:50:59;1.56;4.26;2.95
50041;PMS7003;44598;51.606;5.912;2023-04-15T21:04:18;3.24;4.59;3.28
50041;PMS7003;44598;51.606;5.912;2023-04-15T21:17:38;2.16;4.48;2.73
50041;PMS7003;44598;51.606;5.912;2023-04-15T21:30:58;2.52;4.48;2.95
50041;PMS7003;44598;51.606;5.912;2023-04-15T21:44:17;2.88;4.26;2.95
50041;PMS7003;44598;51.606;5.912;2023-04-15T21:57:37;2.04;4.26;3.17
50041;PMS7003;44598;51.606;5.912;2023-04-15T22:10:56;3.0;5.02;3.28
50041;PMS7003;44598;51.606;5.912;2023-04-15T22:37:36;2.52;4.48;3.06
50041;PMS7003;44598;51.606;5.912;2023-04-15T22:50:55;1.44;4.15;3.17
50041;PMS7003;44598;51.606;5.912;2023-04-15T23:04:15;2.16;4.8;3.17
50041;PMS7003;44598;51.606;5.912;2023-04-15T23:17:35;2.52;4.7;3.61
50041;PMS7003;44598;51.606;5.912;2023-04-15T23:30:54;2.76;5.68;4.04
50041;PMS7003;44598;51.606;5.912;2023-04-15T23:44:14;4.45;6.33;4.26
